Main page
METAR-TAF:

METAR-TAF

Airports :

Denison Municipal Airport

Denison, Iowa, United States

latitude: 41-59N, longitude: 095-23W, elevation: 1273 ft

Current weather observation

The report was made 56 minutes ago, at 01:15 UTC
Wind 8 mph from the Southeast
Temperature 61°F
Humidity 39%
Pressure 30.12 in. Hg
Visibility: 10 miles
Few clouds at a height of 12000 ft

METAR: KDNS 250115Z AUTO 13007KT 10SM FEW120 16/02 A3012 RMK AO2

Time: 21:11 (02:11 UTC)


TAF: missing

Weather observations and forecasts of more than 4000 airports (METAR and TAF reports).

The available stations are represented by yellow and red dots on the map.

Hover mouse over dot to see the name of the station.

Then click to see weather observations and forecasts.

To change the map : click on the green buttons with a black cross to zoom in, on the green button with a dash to zoom out, or on the green arrows for adjacent maps.


METAR-TAF: